sensor_id;sensor_type;location;lat;lon;timestamp;noise_LAeq;noise_LA_min;noise_LA_max;noise_LA01;noise_LA95
65079;Laerm;52655;52.218;5.964;2022-07-18T00:00:23;31.6;29.6;44.6;;
65079;Laerm;52655;52.218;5.964;2022-07-18T00:02:23;30.5;29.0;34.8;;
65079;Laerm;52655;52.218;5.964;2022-07-18T00:04:23;34.5;29.4;50.2;;
65079;Laerm;52655;52.218;5.964;2022-07-18T00:06:23;31.0;29.6;32.8;;
65079;Laerm;52655;52.218;5.964;2022-07-18T00:08:24;31.4;29.4;36.3;;
65079;Laerm;52655;52.218;5.964;2022-07-18T00:10:23;31.8;29.5;52.0;;
65079;Laerm;52655;52.218;5.964;2022-07-18T00:12:24;34.3;30.2;45.7;;
65079;Laerm;52655;52.218;5.964;2022-07-18T00:14:24;30.8;29.2;34.1;;
65079;Laerm;52655;52.218;5.964;2022-07-18T00:16:24;30.2;28.6;33.5;;
65079;Laerm;52655;52.218;5.964;2022-07-18T00:18:24;36.2;28.9;45.9;;
65079;Laerm;52655;52.218;5.964;2022-07-18T00:20:24;36.2;29.5;46.6;;
65079;Laerm;52655;52.218;5.964;2022-07-18T00:22:24;36.2;29.3;51.6;;
65079;Laerm;52655;52.218;5.964;2022-07-18T00:24:24;30.2;28.8;34.9;;
65079;Laerm;52655;52.218;5.964;2022-07-18T00:26:24;30.4;29.3;31.8;;
65079;Laerm;52655;52.218;5.964;2022-07-18T00:28:24;30.4;29.0;33.7;;
65079;Laerm;52655;52.218;5.964;2022-07-18T00:30:24;30.5;28.5;43.5;;
65079;Laerm;52655;52.218;5.964;2022-07-18T00:32:24;31.0;28.9;38.2;;
65079;Laerm;52655;52.218;5.964;2022-07-18T00:34:24;30.4;28.9;34.4;;
65079;Laerm;52655;52.218;5.964;2022-07-18T00:36:24;31.6;29.8;41.1;;
65079;Laerm;52655;52.218;5.964;2022-07-18T00:38:31;30.7;29.6;32.5;;
65079;Laerm;52655;52.218;5.964;2022-07-18T00:42:24;30.9;29.3;35.6;;
65079;Laerm;52655;52.218;5.964;2022-07-18T00:44:25;30.5;29.2;32.3;;
65079;Laerm;52655;52.218;5.964;2022-07-18T00:46:25;30.6;29.3;32.3;;
65079;Laerm;52655;52.218;5.964;2022-07-18T00:48:24;31.0;29.5;33.7;;
65079;Laerm;52655;52.218;5.964;2022-07-18T00:50:24;30.5;29.1;31.8;;
65079;Laerm;52655;52.218;5.964;2022-07-18T00:52:25;30.4;29.1;32.6;;
65079;Laerm;52655;52.218;5.964;2022-07-18T00:54:25;30.0;29.1;31.6;;
65079;Laerm;52655;52.218;5.964;2022-07-18T00:56:25;31.0;29.0;35.4;;
65079;Laerm;52655;52.218;5.964;2022-07-18T00:58:25;30.5;29.0;32.3;;
65079;Laerm;52655;52.218;5.964;2022-07-18T01:00:25;33.4;29.4;44.6;;
65079;Laerm;52655;52.218;5.964;2022-07-18T01:02:25;32.0;29.6;37.6;;
65079;Laerm;52655;52.218;5.964;2022-07-18T01:04:25;30.5;29.0;32.7;;
65079;Laerm;52655;52.218;5.964;2022-07-18T01:06:25;32.4;29.3;45.5;;
65079;Laerm;52655;52.218;5.964;2022-07-18T01:08:25;31.7;28.8;37.6;;
65079;Laerm;52655;52.218;5.964;2022-07-18T01:10:25;30.7;29.2;34.1;;
65079;Laerm;52655;52.218;5.964;2022-07-18T01:12:25;32.1;29.3;43.9;;
65079;Laerm;52655;52.218;5.964;2022-07-18T01:14:25;30.5;29.6;34.8;;
65079;Laerm;52655;52.218;5.964;2022-07-18T01:18:25;31.2;29.6;39.9;;
65079;Laerm;52655;52.218;5.964;2022-07-18T01:20:26;30.5;28.9;33.7;;
65079;Laerm;52655;52.218;5.964;2022-07-18T01:22:25;36.4;29.1;48.3;;
65079;Laerm;52655;52.218;5.964;2022-07-18T01:24:26;31.8;29.0;43.0;;
65079;Laerm;52655;52.218;5.964;2022-07-18T01:26:26;32.8;29.1;45.7;;
65079;Laerm;52655;52.218;5.964;2022-07-18T01:28:26;30.3;29.0;33.4;;
65079;Laerm;52655;52.218;5.964;2022-07-18T01:30:26;30.2;28.4;44.2;;
65079;Laerm;52655;52.218;5.964;2022-07-18T01:32:26;30.1;28.9;31.7;;
65079;Laerm;52655;52.218;5.964;2022-07-18T01:34:26;30.2;28.9;31.8;;
65079;Laerm;52655;52.218;5.964;2022-07-18T01:36:26;30.0;28.9;34.1;;
65079;Laerm;52655;52.218;5.964;2022-07-18T01:38:26;30.3;29.2;31.9;;
65079;Laerm;52655;52.218;5.964;2022-07-18T01:40:26;29.8;28.6;31.6;;
65079;Laerm;52655;52.218;5.964;2022-07-18T01:44:27;30.4;28.6;38.5;;
65079;Laerm;52655;52.218;5.964;2022-07-18T01:46:26;29.8;28.8;33.5;;
65079;Laerm;52655;52.218;5.964;2022-07-18T01:48:26;30.5;28.4;37.2;;
65079;Laerm;52655;52.218;5.964;2022-07-18T01:50:26;30.4;29.1;33.7;;
65079;Laerm;52655;52.218;5.964;2022-07-18T01:52:26;29.8;28.6;33.5;;
65079;Laerm;52655;52.218;5.964;2022-07-18T01:56:26;30.0;28.9;32.1;;
65079;Laerm;52655;52.218;5.964;2022-07-18T01:58:26;30.6;28.8;33.6;;
65079;Laerm;52655;52.218;5.964;2022-07-18T02:00:26;30.8;28.7;44.4;;
65079;Laerm;52655;52.218;5.964;2022-07-18T02:02:27;31.0;29.0;39.7;;
65079;Laerm;52655;52.218;5.964;2022-07-18T02:04:40;34.0;29.2;49.6;;
65079;Laerm;52655;52.218;5.964;2022-07-18T02:06:27;30.0;28.6;31.4;;
65079;Laerm;52655;52.218;5.964;2022-07-18T02:08:27;32.4;29.2;45.7;;
65079;Laerm;52655;52.218;5.964;2022-07-18T02:10:27;33.4;29.2;46.5;;
65079;Laerm;52655;52.218;5.964;2022-07-18T02:12:27;30.0;28.8;32.3;;
65079;Laerm;52655;52.218;5.964;2022-07-18T02:16:27;30.3;29.1;32.0;;
65079;Laerm;52655;52.218;5.964;2022-07-18T02:18:27;31.0;29.2;43.1;;
65079;Laerm;52655;52.218;5.964;2022-07-18T02:20:27;31.8;29.4;41.6;;
65079;Laerm;52655;52.218;5.964;2022-07-18T02:22:27;30.6;29.0;34.8;;
65079;Laerm;52655;52.218;5.964;2022-07-18T02:24:27;32.9;29.2;45.7;;
65079;Laerm;52655;52.218;5.964;2022-07-18T02:26:27;30.0;28.8;36.2;;
65079;Laerm;52655;52.218;5.964;2022-07-18T02:28:27;33.1;29.2;48.2;;
65079;Laerm;52655;52.218;5.964;2022-07-18T02:30:27;30.5;28.7;43.8;;
65079;Laerm;52655;52.218;5.964;2022-07-18T02:32:27;30.7;29.2;33.3;;
65079;Laerm;52655;52.218;5.964;2022-07-18T02:34:27;32.6;29.4;46.3;;
65079;Laerm;52655;52.218;5.964;2022-07-18T02:36:27;30.6;29.5;32.6;;
65079;Laerm;52655;52.218;5.964;2022-07-18T02:38:27;30.8;29.8;36.6;;
65079;Laerm;52655;52.218;5.964;2022-07-18T02:40:28;33.5;29.6;47.1;;
65079;Laerm;52655;52.218;5.964;2022-07-18T02:42:28;32.3;29.3;44.6;;
65079;Laerm;52655;52.218;5.964;2022-07-18T02:44:28;31.2;29.4;37.5;;
65079;Laerm;52655;52.218;5.964;2022-07-18T02:46:28;31.7;29.4;41.3;;
65079;Laerm;52655;52.218;5.964;2022-07-18T02:48:28;34.7;29.9;48.1;;
65079;Laerm;52655;52.218;5.964;2022-07-18T02:52:28;32.1;29.4;42.8;;
65079;Laerm;52655;52.218;5.964;2022-07-18T02:54:28;34.2;29.6;48.8;;
65079;Laerm;52655;52.218;5.964;2022-07-18T02:56:28;34.4;29.7;55.0;;
65079;Laerm;52655;52.218;5.964;2022-07-18T02:58:28;33.7;29.9;51.5;;
65079;Laerm;52655;52.218;5.964;2022-07-18T03:00:28;36.5;30.0;53.5;;
65079;Laerm;52655;52.218;5.964;2022-07-18T03:02:28;37.1;30.2;56.8;;
65079;Laerm;52655;52.218;5.964;2022-07-18T03:04:28;34.6;29.6;50.4;;
65079;Laerm;52655;52.218;5.964;2022-07-18T03:06:28;32.2;29.6;41.0;;
65079;Laerm;52655;52.218;5.964;2022-07-18T03:08:28;31.4;29.9;36.3;;
65079;Laerm;52655;52.218;5.964;2022-07-18T03:10:28;33.2;30.0;42.6;;
65079;Laerm;52655;52.218;5.964;2022-07-18T03:12:29;34.9;30.0;42.2;;
65079;Laerm;52655;52.218;5.964;2022-07-18T03:14:29;35.0;30.4;50.4;;
65079;Laerm;52655;52.218;5.964;2022-07-18T03:18:29;34.1;30.3;45.7;;
65079;Laerm;52655;52.218;5.964;2022-07-18T03:20:29;35.0;30.3;50.7;;
65079;Laerm;52655;52.218;5.964;2022-07-18T03:22:29;32.5;30.6;40.7;;
65079;Laerm;52655;52.218;5.964;2022-07-18T03:24:29;36.8;31.6;48.0;;
65079;Laerm;52655;52.218;5.964;2022-07-18T03:26:29;34.9;30.8;50.0;;
65079;Laerm;52655;52.218;5.964;2022-07-18T03:28:29;33.1;30.4;43.3;;
65079;Laerm;52655;52.218;5.964;2022-07-18T03:30:29;32.9;30.4;44.6;;
65079;Laerm;52655;52.218;5.964;2022-07-18T03:32:29;34.6;30.9;48.2;;
65079;Laerm;52655;52.218;5.964;2022-07-18T03:34:29;42.1;30.8;56.7;;
65079;Laerm;52655;52.218;5.964;2022-07-18T03:36:29;38.0;32.0;49.1;;
65079;Laerm;52655;52.218;5.964;2022-07-18T03:38:29;35.2;32.0;43.2;;
65079;Laerm;52655;52.218;5.964;2022-07-18T03:40:29;40.4;31.6;57.7;;
65079;Laerm;52655;52.218;5.964;2022-07-18T03:42:29;41.6;31.1;58.8;;
65079;Laerm;52655;52.218;5.964;2022-07-18T03:44:29;36.8;31.8;47.6;;
65079;Laerm;52655;52.218;5.964;2022-07-18T03:46:29;37.3;31.5;51.0;;
65079;Laerm;52655;52.218;5.964;2022-07-18T03:48:30;35.8;31.8;44.2;;
65079;Laerm;52655;52.218;5.964;2022-07-18T03:54:30;39.0;32.4;51.7;;
65079;Laerm;52655;52.218;5.964;2022-07-18T03:56:30;39.6;32.5;54.1;;
65079;Laerm;52655;52.218;5.964;2022-07-18T03:58:30;36.3;31.6;45.5;;
65079;Laerm;52655;52.218;5.964;2022-07-18T04:00:30;40.2;32.5;60.0;;
65079;Laerm;52655;52.218;5.964;2022-07-18T04:02:30;42.4;32.9;59.5;;
65079;Laerm;52655;52.218;5.964;2022-07-18T04:04:30;36.9;32.2;46.9;;
65079;Laerm;52655;52.218;5.964;2022-07-18T04:06:30;38.5;32.2;50.2;;
65079;Laerm;52655;52.218;5.964;2022-07-18T04:08:30;39.8;31.9;52.5;;
65079;Laerm;52655;52.218;5.964;2022-07-18T04:10:30;35.4;31.1;44.2;;
65079;Laerm;52655;52.218;5.964;2022-07-18T04:12:30;36.9;32.0;45.6;;
65079;Laerm;52655;52.218;5.964;2022-07-18T04:14:30;39.1;32.2;58.6;;
65079;Laerm;52655;52.218;5.964;2022-07-18T04:16:30;39.3;31.8;56.6;;
65079;Laerm;52655;52.218;5.964;2022-07-18T04:18:30;37.1;32.3;50.0;;
65079;Laerm;52655;52.218;5.964;2022-07-18T04:20:31;34.5;31.1;42.6;;
65079;Laerm;52655;52.218;5.964;2022-07-18T04:22:30;38.4;33.2;55.1;;
65079;Laerm;52655;52.218;5.964;2022-07-18T04:24:30;38.2;32.3;51.4;;
65079;Laerm;52655;52.218;5.964;2022-07-18T04:26:31;43.0;32.2;64.7;;
65079;Laerm;52655;52.218;5.964;2022-07-18T04:28:31;44.3;32.3;68.0;;
65079;Laerm;52655;52.218;5.964;2022-07-18T04:30:31;37.8;31.7;48.1;;
65079;Laerm;52655;52.218;5.964;2022-07-18T04:32:31;37.2;32.2;48.0;;
65079;Laerm;52655;52.218;5.964;2022-07-18T04:34:31;37.6;32.5;49.9;;
65079;Laerm;52655;52.218;5.964;2022-07-18T04:36:31;38.2;32.6;50.3;;
65079;Laerm;52655;52.218;5.964;2022-07-18T04:38:31;39.5;32.9;55.3;;
65079;Laerm;52655;52.218;5.964;2022-07-18T04:40:31;43.8;33.6;56.5;;
65079;Laerm;52655;52.218;5.964;2022-07-18T04:42:31;38.7;33.4;51.2;;
65079;Laerm;52655;52.218;5.964;2022-07-18T04:44:31;41.1;34.0;60.8;;
65079;Laerm;52655;52.218;5.964;2022-07-18T04:46:31;40.8;34.3;52.2;;
65079;Laerm;52655;52.218;5.964;2022-07-18T04:48:31;39.8;32.8;53.7;;
65079;Laerm;52655;52.218;5.964;2022-07-18T04:50:31;39.5;34.3;47.4;;
65079;Laerm;52655;52.218;5.964;2022-07-18T04:52:35;41.4;34.1;53.7;;
65079;Laerm;52655;52.218;5.964;2022-07-18T04:54:31;42.6;33.6;55.1;;
65079;Laerm;52655;52.218;5.964;2022-07-18T04:56:31;42.1;34.2;57.2;;
65079;Laerm;52655;52.218;5.964;2022-07-18T04:58:31;40.3;33.9;56.6;;
65079;Laerm;52655;52.218;5.964;2022-07-18T05:00:31;39.1;33.8;50.9;;
65079;Laerm;52655;52.218;5.964;2022-07-18T05:02:32;42.0;33.6;67.0;;
65079;Laerm;52655;52.218;5.964;2022-07-18T05:04:32;38.5;32.8;46.8;;
65079;Laerm;52655;52.218;5.964;2022-07-18T05:06:32;39.5;33.9;52.8;;
65079;Laerm;52655;52.218;5.964;2022-07-18T05:08:32;38.5;33.7;49.6;;
65079;Laerm;52655;52.218;5.964;2022-07-18T05:10:32;39.2;33.5;51.0;;
65079;Laerm;52655;52.218;5.964;2022-07-18T05:12:32;36.3;32.9;45.3;;
65079;Laerm;52655;52.218;5.964;2022-07-18T05:14:32;38.9;34.0;47.9;;
65079;Laerm;52655;52.218;5.964;2022-07-18T05:16:32;40.0;33.2;50.8;;
65079;Laerm;52655;52.218;5.964;2022-07-18T05:18:32;39.1;32.7;52.7;;
65079;Laerm;52655;52.218;5.964;2022-07-18T05:20:32;35.4;32.2;47.0;;
65079;Laerm;52655;52.218;5.964;2022-07-18T05:22:32;38.8;32.9;47.8;;
65079;Laerm;52655;52.218;5.964;2022-07-18T05:24:32;40.2;33.5;51.4;;
65079;Laerm;52655;52.218;5.964;2022-07-18T05:26:33;35.9;32.8;41.2;;
65079;Laerm;52655;52.218;5.964;2022-07-18T05:28:32;38.0;33.8;47.9;;
65079;Laerm;52655;52.218;5.964;2022-07-18T05:32:32;40.5;33.0;53.2;;
65079;Laerm;52655;52.218;5.964;2022-07-18T05:34:32;38.9;33.1;48.1;;
65079;Laerm;52655;52.218;5.964;2022-07-18T05:36:32;37.5;32.5;52.3;;
65079;Laerm;52655;52.218;5.964;2022-07-18T05:38:33;39.8;32.6;52.8;;
65079;Laerm;52655;52.218;5.964;2022-07-18T05:42:33;38.3;33.4;48.2;;
65079;Laerm;52655;52.218;5.964;2022-07-18T05:44:33;41.2;33.2;58.1;;
65079;Laerm;52655;52.218;5.964;2022-07-18T05:46:33;41.4;33.1;52.5;;
65079;Laerm;52655;52.218;5.964;2022-07-18T05:48:33;38.9;33.5;55.3;;
65079;Laerm;52655;52.218;5.964;2022-07-18T05:50:33;40.0;33.8;49.1;;
65079;Laerm;52655;52.218;5.964;2022-07-18T05:52:33;39.8;33.9;48.0;;
65079;Laerm;52655;52.218;5.964;2022-07-18T05:54:33;40.7;34.0;47.6;;
65079;Laerm;52655;52.218;5.964;2022-07-18T05:56:33;40.5;34.6;54.4;;
65079;Laerm;52655;52.218;5.964;2022-07-18T05:58:46;42.6;35.2;54.1;;
65079;Laerm;52655;52.218;5.964;2022-07-18T06:00:33;39.3;34.3;48.2;;
65079;Laerm;52655;52.218;5.964;2022-07-18T06:02:47;40.0;33.4;50.3;;
65079;Laerm;52655;52.218;5.964;2022-07-18T06:04:33;38.9;34.3;48.8;;
65079;Laerm;52655;52.218;5.964;2022-07-18T06:06:33;42.3;35.0;53.5;;
65079;Laerm;52655;52.218;5.964;2022-07-18T06:08:33;43.1;33.9;64.0;;
65079;Laerm;52655;52.218;5.964;2022-07-18T06:10:33;38.5;34.0;49.8;;
65079;Laerm;52655;52.218;5.964;2022-07-18T06:12:33;40.2;33.5;54.1;;
65079;Laerm;52655;52.218;5.964;2022-07-18T06:14:34;40.7;33.7;50.7;;
65079;Laerm;52655;52.218;5.964;2022-07-18T06:16:34;39.5;34.2;47.8;;
65079;Laerm;52655;52.218;5.964;2022-07-18T06:18:35;38.0;34.3;45.0;;
65079;Laerm;52655;52.218;5.964;2022-07-18T06:20:34;38.3;33.9;48.4;;
65079;Laerm;52655;52.218;5.964;2022-07-18T06:22:34;38.5;33.7;50.5;;
65079;Laerm;52655;52.218;5.964;2022-07-18T06:24:34;39.8;34.6;46.9;;
65079;Laerm;52655;52.218;5.964;2022-07-18T06:26:34;42.4;33.4;54.7;;
65079;Laerm;52655;52.218;5.964;2022-07-18T06:30:34;41.5;33.4;56.8;;
65079;Laerm;52655;52.218;5.964;2022-07-18T06:34:34;40.9;34.1;60.0;;
65079;Laerm;52655;52.218;5.964;2022-07-18T06:36:34;41.2;34.6;50.0;;
65079;Laerm;52655;52.218;5.964;2022-07-18T06:38:48;37.8;32.2;47.0;;
65079;Laerm;52655;52.218;5.964;2022-07-18T06:40:34;39.4;33.1;59.8;;
65079;Laerm;52655;52.218;5.964;2022-07-18T06:42:34;38.9;33.1;48.6;;
65079;Laerm;52655;52.218;5.964;2022-07-18T06:44:34;40.8;34.5;48.3;;
65079;Laerm;52655;52.218;5.964;2022-07-18T06:46:35;42.1;33.3;59.0;;
65079;Laerm;52655;52.218;5.964;2022-07-18T06:48:35;43.6;34.2;56.8;;
65079;Laerm;52655;52.218;5.964;2022-07-18T06:50:35;42.5;33.1;57.0;;
65079;Laerm;52655;52.218;5.964;2022-07-18T06:52:35;41.8;32.9;57.0;;
65079;Laerm;52655;52.218;5.964;2022-07-18T06:54:35;42.3;33.7;53.5;;
65079;Laerm;52655;52.218;5.964;2022-07-18T06:56:35;41.4;34.2;52.5;;
65079;Laerm;52655;52.218;5.964;2022-07-18T06:58:35;40.7;33.7;53.2;;
65079;Laerm;52655;52.218;5.964;2022-07-18T07:00:35;41.2;33.4;54.4;;
65079;Laerm;52655;52.218;5.964;2022-07-18T07:02:35;43.5;33.9;60.0;;
65079;Laerm;52655;52.218;5.964;2022-07-18T07:04:35;41.9;33.7;57.8;;
65079;Laerm;52655;52.218;5.964;2022-07-18T07:06:35;41.6;33.7;52.4;;
65079;Laerm;52655;52.218;5.964;2022-07-18T07:08:35;40.0;34.9;48.3;;
65079;Laerm;52655;52.218;5.964;2022-07-18T07:10:35;41.9;35.1;50.2;;
65079;Laerm;52655;52.218;5.964;2022-07-18T07:14:35;42.6;36.5;55.3;;
65079;Laerm;52655;52.218;5.964;2022-07-18T07:16:35;42.8;33.3;53.9;;
65079;Laerm;52655;52.218;5.964;2022-07-18T07:18:35;42.6;34.2;55.7;;
65079;Laerm;52655;52.218;5.964;2022-07-18T07:20:35;41.5;33.9;66.2;;
65079;Laerm;52655;52.218;5.964;2022-07-18T07:22:40;41.0;33.9;52.8;;
65079;Laerm;52655;52.218;5.964;2022-07-18T07:26:36;39.6;33.4;48.1;;
65079;Laerm;52655;52.218;5.964;2022-07-18T07:30:36;43.0;32.9;55.8;;
65079;Laerm;52655;52.218;5.964;2022-07-18T07:32:36;38.0;32.6;47.2;;
65079;Laerm;52655;52.218;5.964;2022-07-18T07:34:36;39.7;33.0;48.8;;
65079;Laerm;52655;52.218;5.964;2022-07-18T07:38:49;40.2;33.3;53.1;;
65079;Laerm;52655;52.218;5.964;2022-07-18T07:42:36;40.5;31.6;51.9;;
65079;Laerm;52655;52.218;5.964;2022-07-18T07:44:36;38.2;32.9;50.1;;
65079;Laerm;52655;52.218;5.964;2022-07-18T07:46:36;40.7;33.7;49.3;;
65079;Laerm;52655;52.218;5.964;2022-07-18T07:48:36;40.2;32.5;49.3;;
65079;Laerm;52655;52.218;5.964;2022-07-18T07:50:50;40.0;32.6;51.6;;
65079;Laerm;52655;52.218;5.964;2022-07-18T07:52:37;39.6;32.3;51.4;;
65079;Laerm;52655;52.218;5.964;2022-07-18T07:54:36;40.7;31.5;54.0;;
65079;Laerm;52655;52.218;5.964;2022-07-18T07:56:36;40.4;31.3;50.0;;
65079;Laerm;52655;52.218;5.964;2022-07-18T07:58:36;37.9;31.2;46.0;;
65079;Laerm;52655;52.218;5.964;2022-07-18T08:01:03;37.3;30.5;48.3;;
65079;Laerm;52655;52.218;5.964;2022-07-18T08:02:37;36.4;31.0;47.8;;
65079;Laerm;52655;52.218;5.964;2022-07-18T08:04:37;39.1;30.8;53.2;;
65079;Laerm;52655;52.218;5.964;2022-07-18T08:06:37;45.7;31.9;70.9;;
65079;Laerm;52655;52.218;5.964;2022-07-18T08:08:37;38.7;31.2;47.5;;
65079;Laerm;52655;52.218;5.964;2022-07-18T08:10:37;42.4;32.6;55.0;;
65079;Laerm;52655;52.218;5.964;2022-07-18T08:12:37;46.2;32.6;69.9;;
65079;Laerm;52655;52.218;5.964;2022-07-18T08:14:37;38.2;31.3;50.0;;
65079;Laerm;52655;52.218;5.964;2022-07-18T08:16:37;37.8;30.9;53.9;;
65079;Laerm;52655;52.218;5.964;2022-07-18T08:18:50;42.8;31.0;55.7;;
65079;Laerm;52655;52.218;5.964;2022-07-18T08:22:55;36.7;30.8;46.6;;
65079;Laerm;52655;52.218;5.964;2022-07-18T08:26:37;45.4;30.9;62.2;;
65079;Laerm;52655;52.218;5.964;2022-07-18T08:30:38;40.8;31.6;50.3;;
65079;Laerm;52655;52.218;5.964;2022-07-18T08:32:37;38.3;31.2;47.1;;
65079;Laerm;52655;52.218;5.964;2022-07-18T08:34:38;39.1;31.4;51.3;;
65079;Laerm;52655;52.218;5.964;2022-07-18T08:38:38;42.7;33.6;55.3;;
65079;Laerm;52655;52.218;5.964;2022-07-18T08:40:38;40.2;31.7;49.4;;
65079;Laerm;52655;52.218;5.964;2022-07-18T08:42:38;38.5;32.2;50.1;;
65079;Laerm;52655;52.218;5.964;2022-07-18T08:44:38;37.1;32.4;47.9;;
65079;Laerm;52655;52.218;5.964;2022-07-18T08:48:38;36.7;31.5;53.9;;
65079;Laerm;52655;52.218;5.964;2022-07-18T08:50:38;38.9;31.9;50.0;;
65079;Laerm;52655;52.218;5.964;2022-07-18T08:52:38;38.5;32.8;51.9;;
65079;Laerm;52655;52.218;5.964;2022-07-18T08:54:38;36.3;31.2;44.0;;
65079;Laerm;52655;52.218;5.964;2022-07-18T08:56:38;40.4;33.7;47.8;;
65079;Laerm;52655;52.218;5.964;2022-07-18T08:58:38;40.5;32.1;50.4;;
65079;Laerm;52655;52.218;5.964;2022-07-18T09:00:38;38.0;31.8;47.2;;
65079;Laerm;52655;52.218;5.964;2022-07-18T09:02:38;38.4;31.7;50.5;;
65079;Laerm;52655;52.218;5.964;2022-07-18T09:04:52;39.4;32.1;47.7;;
65079;Laerm;52655;52.218;5.964;2022-07-18T09:06:52;38.5;31.1;48.1;;
65079;Laerm;52655;52.218;5.964;2022-07-18T09:08:39;39.3;31.4;54.8;;
65079;Laerm;52655;52.218;5.964;2022-07-18T09:10:50;37.8;30.6;48.4;;
65079;Laerm;52655;52.218;5.964;2022-07-18T09:12:39;41.1;32.2;55.5;;
65079;Laerm;52655;52.218;5.964;2022-07-18T09:18:39;40.9;33.0;51.9;;
65079;Laerm;52655;52.218;5.964;2022-07-18T09:20:39;41.0;32.6;49.4;;
65079;Laerm;52655;52.218;5.964;2022-07-18T09:22:41;38.2;31.5;49.6;;
65079;Laerm;52655;52.218;5.964;2022-07-18T09:24:51;40.1;31.3;50.9;;
65079;Laerm;52655;52.218;5.964;2022-07-18T09:26:43;37.3;30.6;48.3;;
65079;Laerm;52655;52.218;5.964;2022-07-18T09:28:47;39.5;31.2;50.7;;
65079;Laerm;52655;52.218;5.964;2022-07-18T09:30:39;45.3;30.7;67.3;;
65079;Laerm;52655;52.218;5.964;2022-07-18T09:32:41;42.3;33.3;50.2;;
65079;Laerm;52655;52.218;5.964;2022-07-18T09:38:39;40.3;31.4;54.4;;
65079;Laerm;52655;52.218;5.964;2022-07-18T09:42:39;39.1;32.3;49.4;;
65079;Laerm;52655;52.218;5.964;2022-07-18T09:44:56;40.1;32.6;53.0;;
65079;Laerm;52655;52.218;5.964;2022-07-18T09:46:59;46.0;42.0;53.4;;
65079;Laerm;52655;52.218;5.964;2022-07-18T09:48:40;52.0;32.4;64.0;;
65079;Laerm;52655;52.218;5.964;2022-07-18T09:52:40;54.9;42.2;59.0;;
65079;Laerm;52655;52.218;5.964;2022-07-18T09:54:40;46.2;31.4;58.2;;
65079;Laerm;52655;52.218;5.964;2022-07-18T09:56:40;38.6;30.6;50.4;;
65079;Laerm;52655;52.218;5.964;2022-07-18T09:58:54;37.3;31.1;47.4;;
65079;Laerm;52655;52.218;5.964;2022-07-18T10:02:40;39.8;32.3;53.2;;
65079;Laerm;52655;52.218;5.964;2022-07-18T10:04:40;41.6;33.6;52.0;;
65079;Laerm;52655;52.218;5.964;2022-07-18T10:06:53;44.9;32.5;62.2;;
65079;Laerm;52655;52.218;5.964;2022-07-18T10:08:41;38.7;31.6;51.8;;
65079;Laerm;52655;52.218;5.964;2022-07-18T10:10:41;40.5;31.3;57.2;;
65079;Laerm;52655;52.218;5.964;2022-07-18T10:12:40;39.3;31.9;46.5;;
65079;Laerm;52655;52.218;5.964;2022-07-18T10:14:40;46.7;31.7;54.8;;
65079;Laerm;52655;52.218;5.964;2022-07-18T10:16:41;45.7;32.0;61.0;;
65079;Laerm;52655;52.218;5.964;2022-07-18T10:18:40;38.6;31.7;47.4;;
65079;Laerm;52655;52.218;5.964;2022-07-18T10:22:42;39.4;31.9;50.3;;
65079;Laerm;52655;52.218;5.964;2022-07-18T10:24:54;38.8;31.5;51.5;;
65079;Laerm;52655;52.218;5.964;2022-07-18T10:26:41;37.0;31.0;48.6;;
65079;Laerm;52655;52.218;5.964;2022-07-18T10:29:08;37.6;31.3;45.6;;
65079;Laerm;52655;52.218;5.964;2022-07-18T10:30:42;36.2;30.5;45.5;;
65079;Laerm;52655;52.218;5.964;2022-07-18T10:32:41;41.5;31.9;62.2;;
65079;Laerm;52655;52.218;5.964;2022-07-18T10:34:54;39.7;32.1;52.4;;
65079;Laerm;52655;52.218;5.964;2022-07-18T10:37:06;41.1;33.1;52.0;;
65079;Laerm;52655;52.218;5.964;2022-07-18T10:39:02;41.2;33.1;54.2;;
65079;Laerm;52655;52.218;5.964;2022-07-18T10:41:02;40.7;31.5;52.5;;
65079;Laerm;52655;52.218;5.964;2022-07-18T10:44:55;40.7;31.8;63.8;;
65079;Laerm;52655;52.218;5.964;2022-07-18T10:47:13;42.0;32.1;63.8;;
65079;Laerm;52655;52.218;5.964;2022-07-18T10:48:50;38.0;31.6;49.0;;
65079;Laerm;52655;52.218;5.964;2022-07-18T10:51:00;41.5;31.9;57.1;;
65079;Laerm;52655;52.218;5.964;2022-07-18T10:53:01;42.0;32.4;54.9;;
65079;Laerm;52655;52.218;5.964;2022-07-18T10:54:41;42.9;32.9;56.7;;
65079;Laerm;52655;52.218;5.964;2022-07-18T10:57:05;41.6;33.6;53.0;;
65079;Laerm;52655;52.218;5.964;2022-07-18T10:58:42;40.7;32.3;53.7;;
65079;Laerm;52655;52.218;5.964;2022-07-18T11:00:42;40.1;33.1;48.4;;
65079;Laerm;52655;52.218;5.964;2022-07-18T11:03:05;38.6;32.4;47.4;;
65079;Laerm;52655;52.218;5.964;2022-07-18T11:04:42;41.9;31.1;53.6;;
65079;Laerm;52655;52.218;5.964;2022-07-18T11:07:11;52.5;34.2;68.3;;
65079;Laerm;52655;52.218;5.964;2022-07-18T11:08:42;57.8;31.0;70.3;;
65079;Laerm;52655;52.218;5.964;2022-07-18T11:11:12;43.3;30.9;56.4;;
65079;Laerm;52655;52.218;5.964;2022-07-18T11:12:42;38.8;32.1;47.6;;
65079;Laerm;52655;52.218;5.964;2022-07-18T11:15:01;38.9;32.1;47.9;;
65079;Laerm;52655;52.218;5.964;2022-07-18T11:17:03;38.6;33.1;46.8;;
65079;Laerm;52655;52.218;5.964;2022-07-18T11:22:42;40.5;33.9;48.2;;
65079;Laerm;52655;52.218;5.964;2022-07-18T11:24:42;39.0;32.9;48.2;;
65079;Laerm;52655;52.218;5.964;2022-07-18T11:26:43;38.4;33.1;47.4;;
65079;Laerm;52655;52.218;5.964;2022-07-18T11:28:42;37.6;32.5;50.1;;
65079;Laerm;52655;52.218;5.964;2022-07-18T11:32:42;39.2;32.1;50.2;;
65079;Laerm;52655;52.218;5.964;2022-07-18T11:34:48;40.0;32.1;52.4;;
65079;Laerm;52655;52.218;5.964;2022-07-18T11:36:44;39.5;30.9;49.3;;
65079;Laerm;52655;52.218;5.964;2022-07-18T11:38:47;37.1;32.0;49.6;;
65079;Laerm;52655;52.218;5.964;2022-07-18T11:40:47;41.5;34.5;48.5;;
65079;Laerm;52655;52.218;5.964;2022-07-18T11:42:43;37.9;32.3;46.4;;
65079;Laerm;52655;52.218;5.964;2022-07-18T11:44:43;45.0;31.6;61.2;;
65079;Laerm;52655;52.218;5.964;2022-07-18T11:48:58;41.9;31.7;56.0;;
65079;Laerm;52655;52.218;5.964;2022-07-18T11:50:43;40.4;32.8;54.3;;
65079;Laerm;52655;52.218;5.964;2022-07-18T11:52:44;39.5;32.1;54.5;;
65079;Laerm;52655;52.218;5.964;2022-07-18T11:54:43;39.5;32.4;49.2;;
65079;Laerm;52655;52.218;5.964;2022-07-18T11:58:44;37.8;31.8;45.7;;
65079;Laerm;52655;52.218;5.964;2022-07-18T12:00:43;38.5;31.1;47.4;;
65079;Laerm;52655;52.218;5.964;2022-07-18T12:03:11;42.7;32.6;56.0;;
65079;Laerm;52655;52.218;5.964;2022-07-18T12:06:43;36.7;31.3;46.5;;
65079;Laerm;52655;52.218;5.964;2022-07-18T12:08:45;41.8;32.1;65.0;;
65079;Laerm;52655;52.218;5.964;2022-07-18T12:10:44;37.4;32.6;45.9;;
65079;Laerm;52655;52.218;5.964;2022-07-18T12:12:44;38.9;32.4;46.7;;
65079;Laerm;52655;52.218;5.964;2022-07-18T12:14:52;39.7;33.4;47.7;;
65079;Laerm;52655;52.218;5.964;2022-07-18T12:16:45;38.3;31.9;47.2;;
65079;Laerm;52655;52.218;5.964;2022-07-18T12:18:47;39.0;30.3;48.2;;
65079;Laerm;52655;52.218;5.964;2022-07-18T12:20:44;39.7;32.5;51.4;;
65079;Laerm;52655;52.218;5.964;2022-07-18T12:24:50;43.5;33.1;54.0;;
65079;Laerm;52655;52.218;5.964;2022-07-18T12:26:44;43.1;33.9;53.5;;
65079;Laerm;52655;52.218;5.964;2022-07-18T12:28:44;42.8;35.2;56.8;;
65079;Laerm;52655;52.218;5.964;2022-07-18T12:30:45;42.8;34.7;50.2;;
65079;Laerm;52655;52.218;5.964;2022-07-18T12:32:45;42.6;35.0;54.8;;
65079;Laerm;52655;52.218;5.964;2022-07-18T12:34:54;42.1;34.0;54.0;;
65079;Laerm;52655;52.218;5.964;2022-07-18T12:36:58;40.8;32.9;55.6;;
65079;Laerm;52655;52.218;5.964;2022-07-18T12:38:59;41.7;32.9;51.6;;
65079;Laerm;52655;52.218;5.964;2022-07-18T12:42:44;42.2;32.1;50.9;;
65079;Laerm;52655;52.218;5.964;2022-07-18T12:44:45;42.3;32.6;59.3;;
65079;Laerm;52655;52.218;5.964;2022-07-18T12:46:44;42.8;32.1;53.5;;
65079;Laerm;52655;52.218;5.964;2022-07-18T12:50:45;40.7;32.5;54.6;;
65079;Laerm;52655;52.218;5.964;2022-07-18T12:52:45;39.2;33.3;51.7;;
65079;Laerm;52655;52.218;5.964;2022-07-18T12:54:45;38.6;33.1;46.8;;
65079;Laerm;52655;52.218;5.964;2022-07-18T12:56:45;38.9;31.9;55.4;;
65079;Laerm;52655;52.218;5.964;2022-07-18T12:58:45;43.2;31.8;57.4;;
65079;Laerm;52655;52.218;5.964;2022-07-18T13:00:45;38.0;32.3;47.4;;
65079;Laerm;52655;52.218;5.964;2022-07-18T13:02:45;39.8;33.4;49.4;;